Latest Weather Observations for Low Head

IDT60801

Issued at 11:31 pm EDT Wednesday 10 February 2016 (issued every 30 minutes, with the page automatically refreshed every 10 minutes)

About weather observations | Map of weather stations | Latest weather observations for TAS | Other Formats
Station Details ID: 091293 Name: LOW HEAD Lat: -41.05 Lon: 146.79 Height: 3.0 m
Data from the previous 72 hours. | See also: Recent months at Low Head
Date/Time
EDT
Temp
°C
App
Temp
°C
Dew
Point
Rel
Hum
%
Delta-T
°C
Wind Press
QNH
hPa
Press
MSL
hPa
Rain
since 9 am
mm
Dir
 
Spd
km/h
Gust
km/h
Spd
kts
Gust
kts
10/11:30pm 20.0 16.2 12.5 62 4.2 W 24 28 13 15 1011.5 1011.5 0.0
10/11:00pm 20.3 16.1 13.5 65 3.9 WSW 28 33 15 18 1011.5 1011.5 0.0
10/10:30pm 20.2 14.5 14.3 69 3.4 W 37 44 20 24 1011.5 1011.5 0.0
10/10:00pm 20.5 14.1 14.4 68 3.6 W 41 46 22 25 1011.4 1011.4 0.0
10/09:30pm 20.9 14.9 14.5 67 3.7 W 39 44 21 24 1011.2 1011.2 0.0
10/09:00pm 21.4 15.2 13.8 62 4.4 W 39 46 21 25 1010.9 1010.9 0.0
10/08:30pm 21.8 15.6 13.9 61 4.6 W 39 46 21 25 1010.6 1010.6 0.0
10/08:00pm 21.9 15.7 15.0 65 4.1 W 41 46 22 25 1010.2 1010.2 0.0
10/07:30pm 22.2 18.0 16.2 69 3.6 WNW 33 41 18 22 1009.9 1009.9 0.0
10/07:00pm 22.0 17.2 16.7 72 3.2 NW 37 43 20 23 1009.8 1009.8 0.0
10/06:30pm 21.7 16.4 16.4 72 3.2 NW 39 46 21 25 1009.8 1009.8 0.0
10/06:00pm 21.4 16.0 15.9 71 3.3 NW 39 46 21 25 1009.9 1009.9 0.0
10/05:30pm 22.0 16.8 15.6 67 3.8 NW 37 44 20 24 1010.0 1010.0 0.0
10/05:00pm 22.4 16.6 16.0 67 3.9 WNW 41 50 22 27 1010.0 1010.0 0.0
10/04:30pm 22.6 17.9 15.9 66 4.0 WNW 35 43 19 23 1010.2 1010.2 0.0
10/04:00pm 22.9 18.8 16.0 65 4.2 WNW 32 37 17 20 1010.5 1010.5 0.0
10/03:30pm 22.7 18.5 16.3 67 3.9 WNW 33 39 18 21 1011.0 1011.0 0.0
10/03:00pm 23.5 20.7 16.3 64 4.4 NW 26 32 14 17 1011.2 1011.2 0.0
10/02:30pm 23.6 21.6 14.9 58 5.2 WNW 19 24 10 13 1011.5 1011.5 0.0
10/02:00pm 22.6 21.1 15.2 63 4.4 NW 17 20 9 11 1011.9 1011.9 0.0
10/01:30pm 21.5 19.6 15.1 67 3.8 NW 19 22 10 12 1012.1 1012.1 0.0
10/01:00pm 21.4 19.8 16.4 73 3.0 NW 20 24 11 13 1012.4 1012.4 0.0
10/12:30pm 21.2 20.4 16.0 72 3.1 N 15 17 8 9 1012.4 1012.4 0.0
10/12:00pm 21.9 22.3 16.4 71 3.3 N 9 11 5 6 1012.6 1012.6 0.0
10/11:30am 21.1 21.8 16.1 73 3.0 N 7 9 4 5 1012.8 1012.8 0.0
10/11:00am 20.7 21.4 15.5 72 3.1 NNW 6 7 3 4 1013.1 1013.1 0.0
10/10:30am 20.4 21.1 16.0 76 2.6 NW 7 11 4 6 1013.2 1013.2 0.0
10/10:00am 20.3 21.6 17.1 82 1.9 W 6 7 3 4 1013.3 1013.3 0.0
10/09:30am 19.2 21.4 16.6 85 1.6 CALM 0 0 0 0 1013.3 1013.3 0.0
10/09:00am 19.3 21.4 17.1 87 1.3 SSW 2 7 1 4 1013.2 1013.2 0.0
10/08:30am 18.4 20.3 16.6 89 1.1 E 2 7 1 4 1013.0 1013.0 0.0
10/08:00am 17.8 18.2 16.3 91 0.9 E 9 11 5 6 1012.6 1012.6 0.0
10/07:30am 17.1 17.6 15.6 91 0.9 SSE 7 9 4 5 1012.8 1012.8 0.0
10/07:00am 17.2 17.4 15.7 91 0.9 S 9 9 5 5 1012.8 1012.8 0.0
10/06:30am 16.6 16.9 15.0 90 0.9 ESE 7 9 4 5 1012.7 1012.7 0.0
10/06:00am 16.9 17.5 15.2 90 1.0 SSE 6 7 3 4 1012.7 1012.7 0.0
10/05:30am 17.0 17.4 15.3 90 1.0 SSE 7 9 4 5 1012.6 1012.6 0.0
10/05:00am 17.0 17.0 15.2 89 1.0 SSE 9 11 5 6 1012.8 1012.8 0.0
10/04:30am 17.2 16.7 15.0 87 1.3 SSE 11 13 6 7 1013.0 1013.0 0.0
10/04:00am 17.8 17.8 15.2 85 1.5 ESE 9 13 5 7 1013.1 1013.1 0.0
10/03:30am 18.9 19.6 16.0 83 1.7 NE 7 11 4 6 1013.0 1013.0 0.0
10/03:00am 19.2 19.6 16.2 83 1.8 N 9 11 5 6 1013.4 1013.4 0.0
10/02:30am 19.4 19.4 16.2 82 1.9 NNE 11 15 6 8 1013.9 1013.9 0.0
10/02:00am 19.7 19.3 16.3 81 2.0 NNE 13 15 7 8 1014.1 1014.1 0.0
10/01:30am 19.7 19.3 16.3 81 2.0 NE 13 17 7 9 1014.6 1014.6 0.0
10/01:00am 19.4 18.6 16.1 81 2.0 NNE 15 20 8 11 1014.8 1014.8 0.0
10/12:30am 19.5 19.5 16.2 81 2.0 NNE 11 13 6 7 1015.1 1015.1 0.0
10/12:00am 19.6 19.3 16.4 82 1.9 NNE 13 17 7 9 1015.3 1015.3 0.0
 
Date/Time
EDT
Temp
°C
App
Temp
°C
Dew
Point
Rel
Hum
%
Delta-T
°C
Wind Press
QNH
hPa
Press
MSL
hPa
Rain
since 9 am
mm
Dir
 
Spd
km/h
Gust
km/h
Spd
kts
Gust
kts
09/11:30pm 19.8 19.1 16.3 80 2.1 NNE 15 17 8 9 1015.4 1015.4 0.0
09/11:00pm 19.8 19.0 16.1 79 2.2 NNE 15 19 8 10 1015.9 1015.9 0.0
09/10:30pm 19.9 19.1 16.2 79 2.2 NNE 15 17 8 9 1016.3 1016.3 0.0
09/10:00pm 20.1 19.7 16.1 78 2.4 N 13 19 7 10 1016.5 1016.5 0.0
09/09:30pm 19.9 18.7 16.0 78 2.3 N 17 20 9 11 1016.4 1016.4 0.0
09/09:00pm 20.0 19.5 15.8 77 2.5 N 13 17 7 9 1016.4 1016.4 0.0
09/08:30pm 20.0 18.7 15.8 77 2.5 N 17 22 9 12 1016.6 1016.6 0.0
09/08:00pm 20.4 19.3 16.4 78 2.4 N 17 22 9 12 1016.6 1016.6 0.0
09/07:30pm 20.0 18.8 16.0 78 2.4 N 17 20 9 11 1016.6 1016.6 0.0
09/07:00pm 20.3 19.1 16.1 77 2.5 N 17 20 9 11 1016.6 1016.6 0.0
09/06:30pm 20.4 19.2 16.2 77 2.5 N 17 20 9 11 1016.8 1016.8 0.0
09/06:00pm 20.7 19.3 16.5 77 2.5 NNE 19 22 10 12 1017.0 1017.0 0.0
09/05:30pm 20.6 19.0 16.4 77 2.5 NNE 20 24 11 13 1017.2 1017.2 0.0
09/05:00pm 20.8 19.1 16.2 75 2.8 NNE 20 24 11 13 1017.4 1017.4 0.0
09/04:30pm 21.0 19.9 16.4 75 2.8 NNE 17 20 9 11 1017.9 1017.9 0.0
09/04:00pm 21.2 20.2 16.6 75 2.8 N 17 22 9 12 1018.3 1018.3 0.0
09/03:30pm 20.9 19.9 16.5 76 2.7 N 17 20 9 11 1018.6 1018.6 0.0
09/03:00pm 20.5 19.0 16.3 77 2.5 NNE 19 22 10 12 1019.0 1019.0 0.0
09/02:30pm 20.5 19.1 16.5 78 2.4 NNE 19 24 10 13 1019.4 1019.4 0.0
09/02:00pm 20.5 18.6 16.7 79 2.3 NNE 22 28 12 15 1019.6 1019.6 0.0
09/01:30pm 21.1 19.3 17.9 82 2.0 NNE 24 30 13 16 1019.6 1019.6 0.0
09/01:00pm 21.8 20.1 18.0 79 2.4 NE 24 28 13 15 1019.7 1019.7 0.0
09/12:30pm 22.1 20.4 18.1 78 2.5 NE 24 26 13 14 1020.0 1020.0 0.0
09/12:00pm 21.7 19.4 17.7 78 2.5 NE 26 32 14 17 1020.3 1020.3 0.0
09/11:30am 21.6 19.4 17.8 79 2.4 NE 26 32 14 17 1020.5 1020.5 0.0
09/11:00am 21.7 19.2 18.1 80 2.2 ENE 28 32 15 17 1020.5 1020.5 0.0
09/10:30am 21.5 19.1 17.3 77 2.6 NE 26 30 14 16 1020.7 1020.7 0.0
09/10:00am 21.6 19.4 17.0 75 2.8 ENE 24 30 13 16 1020.8 1020.8 0.0
09/09:30am 20.3 19.0 13.7 66 3.8 SE 13 17 7 9 1021.0 1021.0 0.0
09/09:00am 20.8 20.3 15.8 73 3.0 ESE 13 20 7 11 1020.9 1020.9 0.0
09/08:30am 21.4 20.7 16.4 73 3.0 ESE 15 20 8 11 1020.8 1020.8 0.0
09/08:00am 19.2 17.1 12.5 65 3.7 SSE 15 20 8 11 1020.6 1020.6 0.0
09/07:30am 18.5 15.8 11.8 65 3.7 SSE 17 20 9 11 1020.4 1020.4 0.0
09/07:00am 18.1 15.8 11.7 66 3.5 SSE 15 20 8 11 1020.2 1020.2 0.0
09/06:30am 18.3 15.6 11.6 65 3.7 SSE 17 20 9 11 1020.1 1020.1 0.0
09/06:00am 18.3 15.9 11.4 64 3.8 SSE 15 20 8 11 1019.9 1019.9 0.0
09/05:30am 18.5 15.3 11.3 63 3.9 SSE 19 22 10 12 1019.6 1019.6 0.0
09/05:00am 18.2 15.4 11.3 64 3.7 SSE 17 20 9 11 1019.4 1019.4 0.0
09/04:30am 18.6 16.0 11.9 65 3.7 SSE 17 20 9 11 1019.5 1019.5 0.0
09/04:00am 18.6 16.2 12.8 69 3.2 SSE 17 20 9 11 1019.5 1019.5 0.0
09/03:30am 18.5 16.7 13.4 72 2.9 SE 15 20 8 11 1019.6 1019.6 0.0
09/03:00am 18.8 16.6 13.4 71 3.1 SSE 17 24 9 13 1019.5 1019.5 0.0
09/02:30am 19.2 18.2 15.5 79 2.2 SE 15 20 8 11 1019.4 1019.4 0.0
09/02:00am 19.2 18.4 15.1 77 2.4 SE 13 19 7 10 1019.3 1019.3 0.0
09/01:30am 19.5 18.7 15.2 76 2.5 SE 13 19 7 10 1019.2 1019.2 0.0
09/01:00am 19.8 18.7 15.4 76 2.6 ESE 15 24 8 13 1019.2 1019.2 0.0
09/12:30am 19.3 18.8 14.8 75 2.6 SE 11 15 6 8 1019.0 1019.0 0.0
09/12:00am 20.6 18.4 16.0 75 2.7 E 22 30 12 16 1018.7 1018.7 0.0
 
Date/Time
EDT
Temp
°C
App
Temp
°C
Dew
Point
Rel
Hum
%
Delta-T
°C
Wind Press
QNH
hPa
Press
MSL
hPa
Rain
since 9 am
mm
Dir
 
Spd
km/h
Gust
km/h
Spd
kts
Gust
kts
08/11:30pm 20.8 17.6 16.2 75 2.8 E 28 39 15 21 1018.7 1018.7 0.0
08/11:25pm 20.9 17.7 16.3 75 2.8 E 28 39 15 21 1018.7 1018.7 0.0
08/11:00pm 20.6 19.7 15.8 74 2.9 ESE 15 20 8 11 1018.7 1018.7 0.0
08/10:30pm 21.4 19.1 16.6 74 2.9 E 24 28 13 15 1018.3 1018.3 0.0
08/10:00pm 21.6 21.2 16.1 71 3.3 E 13 20 7 11 1018.0 1018.0 0.0
08/09:30pm 22.7 21.2 16.7 69 3.7 W 20 22 11 12 1017.3 1017.3 0.0
08/09:00pm 22.6 20.3 17.5 73 3.2 W 26 30 14 16 1016.7 1016.7 0.0
08/08:30pm 23.1 19.8 16.9 68 3.8 W 30 33 16 18 1016.4 1016.4 0.0
08/08:00pm 24.0 19.7 15.8 60 5.0 W 33 37 18 20 1016.1 1016.1 0.0
08/07:30pm 24.1 20.8 16.9 64 4.4 WNW 30 35 16 19 1015.9 1015.9 0.0
08/07:00pm 24.4 20.6 16.6 61 4.8 WNW 32 35 17 19 1015.7 1015.7 0.0
08/06:30pm 23.5 20.9 17.7 70 3.6 NW 28 32 15 17 1015.6 1015.6 0.0
08/06:00pm 23.6 20.4 17.3 67 3.9 NW 30 35 16 19 1015.6 1015.6 0.0
08/05:30pm 23.4 22.1 18.1 72 3.3 NNW 22 28 12 15 1016.1 1016.1 0.0
08/05:00pm 23.4 20.6 17.2 68 3.8 NNW 28 33 15 18 1016.4 1016.4 0.0
08/04:30pm 23.6 20.1 16.6 65 4.3 NW 30 35 16 19 1016.6 1016.6 0.0
08/04:00pm 24.0 19.8 15.8 60 5.0 NW 32 39 17 21 1016.7 1016.7 0.0
08/03:30pm 25.0 22.7 16.7 60 5.1 NW 24 32 13 17 1017.0 1017.0 0.0
08/03:00pm 24.6 22.7 16.6 61 4.9 NW 22 28 12 15 1017.3 1017.3 0.0
08/02:30pm 24.5 22.8 16.2 60 5.1 NW 20 24 11 13 1017.3 1017.3 0.0
08/02:00pm 24.6 22.1 16.1 59 5.2 NW 24 28 13 15 1017.5 1017.5 0.0
08/01:30pm 24.2 21.6 15.9 59 5.0 WNW 24 28 13 15 1017.8 1017.8 0.0
08/01:00pm 24.2 22.3 16.7 63 4.6 NW 22 26 12 14 1017.8 1017.8 0.0
08/12:30pm 23.7 22.3 17.0 66 4.1 WNW 20 24 11 13 1018.0 1018.0 0.0
08/12:00pm 23.3 21.9 16.6 66 4.1 NW 19 20 10 11 1018.0 1018.0 0.0
08/11:30am 22.7 21.4 16.9 70 3.6 WNW 19 20 10 11 1018.2 1018.2 0.0
08/11:00am 22.7 22.3 18.0 75 2.9 WNW 17 17 9 9 1018.3 1018.3 0.0
08/10:30am 21.5 21.3 17.5 78 2.5 W 15 17 8 9 1018.5 1018.5 0.0
08/10:00am 21.8 22.7 17.6 77 2.6 NW 9 11 5 6 1018.4 1018.4 0.0
08/09:30am 21.0 21.8 17.4 80 2.2 NW 9 11 5 6 1018.4 1018.4 0.0
08/09:00am 20.5 21.4 17.5 83 1.8 NNW 9 11 5 6 1018.3 1018.3 0.0
08/08:30am 20.2 20.3 17.4 84 1.7 NNW 13 15 7 8 1018.2 1018.2 0.0
08/08:00am 20.2 20.5 17.8 86 1.5 NNW 13 13 7 7 1018.1 1018.1 0.0
08/07:30am 20.0 20.3 17.8 87 1.4 NW 13 15 7 8 1018.0 1018.0 0.0
08/07:00am 19.9 19.7 17.7 87 1.3 N 15 17 8 9 1017.8 1017.8 0.0
08/06:30am 20.1 20.1 17.3 84 1.7 N 13 15 7 8 1017.5 1017.5 0.0
08/06:00am 20.0 20.0 17.2 84 1.7 N 13 17 7 9 1017.3 1017.3 0.0
08/05:30am 19.9 19.9 17.3 85 1.6 N 13 17 7 9 1017.2 1017.2 0.0
08/05:00am 20.0 19.9 17.0 83 1.8 NNW 13 17 7 9 1017.2 1017.2 0.0
08/04:30am 20.0 20.4 17.2 84 1.7 N 11 15 6 8 1017.2 1017.2 0.0
08/04:00am 19.8 20.1 17.0 84 1.7 N 11 13 6 7 1017.3 1017.3 0.0
08/03:30am 20.0 20.8 17.2 84 1.7 NNW 9 13 5 7 1017.4 1017.4 0.0
08/03:00am 20.0 20.4 17.2 84 1.7 NNW 11 13 6 7 1017.5 1017.5 0.0
08/02:30am 19.9 20.6 17.1 84 1.7 NNW 9 13 5 7 1017.8 1017.8 0.0
08/02:00am 20.0 20.5 17.4 85 1.6 NW 11 15 6 8 1017.9 1017.9 0.0
08/01:30am 19.8 19.5 17.4 86 1.5 N 15 19 8 10 1017.7 1017.7 0.0
08/01:00am 20.1 19.5 17.5 85 1.6 NNE 17 19 9 10 1017.6 1017.6 0.0
08/12:30am 20.0 20.1 17.4 85 1.6 N 13 15 7 8 1018.0 1018.0 0.0
08/12:00am 20.3 20.9 17.7 85 1.6 N 11 13 6 7 1018.1 1018.1 0.0

Other Formats:

Comma delimited format used in spreadsheet applications
http://www.bom.gov.au/fwo/IDT60801/IDT60801.95964.axf

JavaScript Object Notation format (JSON) in row-major order
http://www.bom.gov.au/fwo/IDT60801/IDT60801.95964.json